Time;durP1;ratioP1;P1;durP2;ratioP2;P2;SDS_P1;SDS_P2;PMS_P1;PMS_P2;Temp;Humidity;BMP_temperature;BMP_pressure;BME280_temperature;BME280_humidity;BME280_pressure;Samples;Min_cycle;Max_cycle;Signal;HPM_P1;HPM_P2
2022/03/22 00:01:40;;;;;;;21.00;15.73;;;;;;;10.03;70.14;100733.41;4980678;28;20235;-88
2022/03/22 00:04:07;;;;;;;20.85;15.88;;;;;;;9.89;70.80;100733.94;4980610;28;20301;-89
2022/03/22 00:06:34;;;;;;;24.05;16.30;;;;;;;9.86;71.25;100733.16;4983534;28;20389;-88
2022/03/22 00:09:00;;;;;;;21.48;16.77;;;;;;;9.78;71.02;100731.63;4983221;28;20282;-89
2022/03/22 00:11:27;;;;;;;21.38;16.98;;;;;;;9.67;71.84;100749.97;4985512;28;20192;-88
2022/03/22 00:13:54;;;;;;;23.13;16.65;;;;;;;9.65;72.71;100733.03;4977741;28;20198;-88
2022/03/22 00:16:22;;;;;;;20.65;15.93;;;;;;;9.66;72.75;100725.84;4988079;28;20233;-88
2022/03/22 00:18:48;;;;;;;23.63;16.67;;;;;;;9.60;72.84;100740.38;4984640;28;20202;-89
2022/03/22 00:21:17;;;;;;;22.27;17.05;;;;;;;9.56;72.89;100744.09;4978204;28;20203;-87
2022/03/22 00:23:45;;;;;;;22.98;16.85;;;;;;;9.47;73.21;100745.31;4981950;28;20566;-88
2022/03/22 00:26:11;;;;;;;21.92;16.55;;;;;;;9.35;73.73;100738.56;4989331;28;20705;-88
2022/03/22 00:28:38;;;;;;;23.33;16.10;;;;;;;9.31;74.31;100741.41;4993584;28;20194;-88
2022/03/22 00:31:07;;;;;;;23.20;16.70;;;;;;;9.31;74.20;100736.91;4985329;28;20218;-88
2022/03/22 00:33:35;;;;;;;19.65;15.38;;;;;;;9.24;74.81;100739.88;4977745;28;20615;-88
2022/03/22 00:36:02;;;;;;;25.90;16.75;;;;;;;9.21;75.46;100737.31;4977652;28;20195;-88
2022/03/22 00:38:29;;;;;;;27.33;16.67;;;;;;;9.12;76.54;100743.88;4987406;28;20212;-88
2022/03/22 00:40:55;;;;;;;22.92;16.63;;;;;;;9.13;76.44;100745.59;4977846;28;20222;-87
2022/03/22 00:43:22;;;;;;;24.45;16.33;;;;;;;9.18;75.75;100746.34;4988318;28;20535;-87
2022/03/22 00:45:49;;;;;;;29.58;18.30;;;;;;;9.17;75.96;100734.69;4975590;28;20216;-88
2022/03/22 00:48:16;;;;;;;19.67;16.73;;;;;;;9.23;75.79;100744.38;4982670;28;20552;-88
2022/03/22 00:50:47;;;;;;;21.00;15.73;;;;;;;9.15;75.93;100751.81;4984242;28;20190;-87
2022/03/22 00:53:13;;;;;;;22.88;17.95;;;;;;;9.05;75.98;100750.38;4980242;28;20630;-87
2022/03/22 00:55:41;;;;;;;22.05;17.13;;;;;;;9.01;76.75;100737.97;4980110;28;20221;-87
2022/03/22 00:58:08;;;;;;;19.85;16.75;;;;;;;9.04;77.18;100746.78;4965582;28;20199;-87
2022/03/22 01:00:35;;;;;;;25.00;17.95;;;;;;;8.97;77.38;100743.44;4980672;28;20235;-87
2022/03/22 01:03:04;;;;;;;22.77;17.40;;;;;;;8.79;78.06;100738.66;4987397;28;20552;-87
2022/03/22 01:05:32;;;;;;;24.50;18.17;;;;;;;8.80;77.86;100743.13;4987408;28;20312;-88
2022/03/22 01:08:05;;;;;;;21.25;16.65;;;;;;;8.74;78.43;100735.25;4991826;28;20613;-86
2022/03/22 01:10:34;;;;;;;25.48;18.00;;;;;;;8.62;79.21;100739.22;4993984;28;20200;-86
2022/03/22 01:13:01;;;;;;;20.33;16.55;;;;;;;8.59;79.70;100733.06;4993564;28;20219;-87
2022/03/22 01:15:33;;;;;;;25.98;16.30;;;;;;;8.53;79.63;100737.72;4989993;28;20198;-87
2022/03/22 01:18:05;;;;;;;24.17;16.63;;;;;;;8.69;78.03;100737.22;4994272;28;20228;-86
2022/03/22 01:20:33;;;;;;;24.77;18.60;;;;;;;8.55;78.78;100735.84;4992553;28;20192;-86
2022/03/22 01:23:03;;;;;;;21.08;16.25;;;;;;;8.45;79.00;100731.69;4993918;28;20189;-87
2022/03/22 01:25:30;;;;;;;23.67;18.20;;;;;;;8.43;79.41;100733.53;4992840;28;20270;-86
2022/03/22 01:27:58;;;;;;;22.25;16.35;;;;;;;8.49;78.99;100738.72;4992763;28;20193;-87
2022/03/22 01:30:26;;;;;;;25.60;17.40;;;;;;;8.47;78.83;100737.00;4986293;28;20619;-87
2022/03/22 01:32:55;;;;;;;23.10;17.58;;;;;;;8.41;79.41;100739.88;4986320;28;20200;-86
2022/03/22 01:35:23;;;;;;;26.08;18.13;;;;;;;8.36;79.41;100738.19;4993367;28;20192;-87
2022/03/22 01:37:50;;;;;;;24.80;15.88;;;;;;;8.40;78.83;100735.44;4991519;28;20180;-87
2022/03/22 01:40:20;;;;;;;27.35;18.05;;;;;;;8.18;80.61;100732.50;4992157;28;20664;-87
2022/03/22 01:42:46;;;;;;;26.00;18.58;;;;;;;8.16;81.44;100732.53;4993416;28;20194;-87
2022/03/22 01:45:15;;;;;;;29.65;18.02;;;;;;;8.23;81.79;100733.25;4993325;28;20218;-87
2022/03/22 01:47:44;;;;;;;27.38;19.42;;;;;;;8.19;81.99;100736.97;4995758;28;20197;-87
2022/03/22 01:50:14;;;;;;;27.60;19.67;;;;;;;8.31;81.45;100731.22;4987063;28;20206;-88
2022/03/22 01:52:42;;;;;;;29.05;18.75;;;;;;;8.28;81.25;100734.88;4984889;28;20194;-87
2022/03/22 01:55:10;;;;;;;24.92;19.83;;;;;;;8.31;80.20;100732.09;4990533;28;20220;-87
2022/03/22 01:57:38;;;;;;;25.42;19.40;;;;;;;8.17;80.98;100726.28;4992017;28;20196;-87
2022/03/22 02:00:07;;;;;;;25.52;20.08;;;;;;;7.85;83.13;100727.22;4995250;28;20221;-87
2022/03/22 02:08:08;;;;;;;26.63;21.05;;;;;;;7.94;83.12;100726.97;4985721;28;20268;-89
2022/03/22 02:10:35;;;;;;;27.83;20.25;;;;;;;7.91;83.11;100710.94;4995259;28;21677;-87
2022/03/22 02:13:03;;;;;;;28.70;21.23;;;;;;;7.90;83.50;100715.44;4993966;28;20192;-88
2022/03/22 02:15:31;;;;;;;26.33;19.63;;;;;;;7.70;84.71;100716.00;4993831;28;20282;-88
2022/03/22 02:17:59;;;;;;;26.50;20.65;;;;;;;7.68;85.72;100709.81;4995032;28;20668;-89
2022/03/22 02:20:25;;;;;;;31.02;22.70;;;;;;;7.52;86.67;100720.06;4993803;28;20213;-88
2022/03/22 02:22:59;;;;;;;29.42;21.08;;;;;;;7.55;87.11;100720.91;4987447;28;20199;-89
2022/03/22 02:25:27;;;;;;;27.77;20.05;;;;;;;7.32;88.21;100717.06;4990401;28;20215;-89
2022/03/22 02:27:54;;;;;;;26.40;19.55;;;;;;;7.37;87.40;100719.63;4995418;28;20213;-88
2022/03/22 02:30:22;;;;;;;25.08;19.40;;;;;;;7.35;88.30;100710.75;4993870;28;20199;-88
2022/03/22 02:32:53;;;;;;;27.75;19.70;;;;;;;7.22;88.86;100704.84;4990348;28;20207;-89
2022/03/22 02:35:21;;;;;;;27.77;21.05;;;;;;;7.20;89.43;100715.59;4987447;28;20194;-88
2022/03/22 02:37:48;;;;;;;27.98;20.08;;;;;;;7.14;89.96;100718.44;4983833;28;20191;-88
2022/03/22 02:40:16;;;;;;;28.00;20.95;;;;;;;7.24;89.96;100724.44;4984348;28;20184;-88
2022/03/22 02:42:45;;;;;;;28.45;19.70;;;;;;;7.12;89.94;100716.72;4991449;28;20281;-89
2022/03/22 02:45:12;;;;;;;26.08;19.33;;;;;;;7.13;90.60;100722.03;4987766;28;20207;-88
2022/03/22 02:47:40;;;;;;;25.35;19.13;;;;;;;7.18;89.38;100725.47;4988371;28;20203;-88
2022/03/22 02:50:08;;;;;;;26.13;20.45;;;;;;;7.00;90.91;100720.59;4980251;28;20240;-86
2022/03/22 02:52:36;;;;;;;26.70;20.13;;;;;;;6.96;91.13;100721.59;4985116;28;20219;-86
2022/03/22 02:55:06;;;;;;;28.85;20.13;;;;;;;6.92;92.06;100717.22;4991074;28;20540;-88
2022/03/22 02:57:32;;;;;;;26.38;19.38;;;;;;;6.71;93.38;100722.19;4981301;28;20192;-88
2022/03/22 03:00:01;;;;;;;24.17;19.00;;;;;;;6.73;93.69;100728.38;4989266;28;20626;-87
2022/03/22 03:02:28;;;;;;;29.00;20.38;;;;;;;6.67;93.98;100723.19;4989409;28;20192;-88
2022/03/22 03:04:54;;;;;;;24.15;18.85;;;;;;;6.59;94.63;100727.84;4984303;28;20199;-88
2022/03/22 03:07:21;;;;;;;24.67;18.77;;;;;;;6.64;94.73;100725.94;4992752;28;20188;-88
2022/03/22 03:09:48;;;;;;;25.67;18.55;;;;;;;6.53;95.11;100726.19;4986728;28;20192;-88
2022/03/22 03:12:15;;;;;;;27.23;20.55;;;;;;;6.38;96.63;100726.56;4984208;28;20192;-88
2022/03/22 03:14:43;;;;;;;28.52;19.88;;;;;;;6.51;96.26;100727.13;4990723;28;20546;-88
2022/03/22 03:17:13;;;;;;;27.30;19.08;;;;;;;6.51;95.58;100727.13;4992995;28;20199;-88
2022/03/22 03:19:40;;;;;;;26.75;19.60;;;;;;;6.70;94.72;100731.16;4994140;28;20211;-88
2022/03/22 03:22:07;;;;;;;26.58;19.00;;;;;;;6.51;94.76;100728.00;4995290;28;20648;-88
2022/03/22 03:24:34;;;;;;;25.90;18.67;;;;;;;6.41;95.95;100727.34;4994873;28;20688;-88
2022/03/22 03:27:01;;;;;;;26.33;19.52;;;;;;;6.44;95.83;100726.41;4996023;28;20559;-88
2022/03/22 03:29:28;;;;;;;24.48;19.23;;;;;;;6.25;96.95;100725.94;4995292;28;20195;-88
2022/03/22 03:31:54;;;;;;;25.55;19.40;;;;;;;6.23;97.44;100734.00;4986985;28;20204;-89
2022/03/22 03:34:23;;;;;;;21.60;18.30;;;;;;;6.13;98.13;100731.56;4996038;28;20188;-88
2022/03/22 03:36:49;;;;;;;26.38;19.05;;;;;;;6.17;98.31;100727.91;4996172;28;20184;-88
2022/03/22 03:39:16;;;;;;;27.02;19.20;;;;;;;6.19;97.84;100731.44;4994388;28;20566;-88
2022/03/22 03:41:56;;;;;;;26.23;18.33;;;;;;;6.22;96.65;100728.72;4997163;28;20192;-88
2022/03/22 03:47:08;;;;;;;23.40;18.02;;;;;;;6.04;98.59;100733.53;4996064;28;20214;-87
2022/03/22 03:49:38;;;;;;;24.02;19.90;;;;;;;5.95;99.20;100735.53;4997056;28;20195;-87
2022/03/22 03:52:07;;;;;;;24.75;17.63;;;;;;;6.03;98.37;100739.78;4989136;28;20202;-86
2022/03/22 03:54:34;;;;;;;27.08;18.13;;;;;;;5.84;99.54;100738.38;4991794;28;20199;-87
2022/03/22 03:57:01;;;;;;;22.35;17.92;;;;;;;5.68;100.00;100748.50;4988065;28;20210;-86
2022/03/22 03:59:28;;;;;;;24.42;18.40;;;;;;;5.63;100.00;100748.59;4992550;28;20196;-86
2022/03/22 04:01:54;;;;;;;26.92;19.42;;;;;;;5.85;100.00;100738.34;4990746;28;20245;-87
2022/03/22 04:04:21;;;;;;;25.45;18.00;;;;;;;5.81;99.39;100741.09;4994969;28;20200;-87
2022/03/22 04:06:49;;;;;;;25.15;18.63;;;;;;;5.47;100.00;100749.78;4995732;28;20933;-87
2022/03/22 04:09:16;;;;;;;22.25;17.50;;;;;;;5.46;100.00;100744.47;4984725;28;20561;-87
2022/03/22 04:11:43;;;;;;;26.05;17.58;;;;;;;5.28;100.00;100741.22;4992361;28;20188;-87
2022/03/22 04:14:10;;;;;;;25.60;17.50;;;;;;;5.29;100.00;100744.78;4989710;28;20203;-88
2022/03/22 04:16:38;;;;;;;25.83;18.50;;;;;;;5.13;100.00;100745.06;4994209;28;20532;-86
2022/03/22 04:19:05;;;;;;;25.08;19.42;;;;;;;4.97;100.00;100746.22;4993961;28;20195;-86
2022/03/22 04:21:34;;;;;;;29.63;19.85;;;;;;;5.11;100.00;100738.88;4987222;28;20198;-86
2022/03/22 04:24:02;;;;;;;25.05;18.60;;;;;;;5.13;100.00;100757.53;4988261;28;20292;-86
2022/03/22 04:26:29;;;;;;;26.05;18.45;;;;;;;5.14;100.00;100751.28;4989302;28;20568;-86
2022/03/22 04:34:23;;;;;;;25.58;18.60;;;;;;;5.27;100.00;100749.25;4994815;28;20249;-87
2022/03/22 04:36:56;;;;;;;30.25;18.25;;;;;;;5.27;100.00;100749.25;4987374;28;20210;-87
2022/03/22 04:39:24;;;;;;;28.52;19.67;;;;;;;5.24;100.00;100747.53;4990039;28;20191;-86
2022/03/22 04:41:51;;;;;;;29.20;19.50;;;;;;;5.05;100.00;100755.00;4986597;28;20195;-86
2022/03/22 04:44:18;;;;;;;25.10;18.58;;;;;;;4.97;100.00;100759.56;4982732;28;20300;-86
2022/03/22 04:46:45;;;;;;;26.35;17.95;;;;;;;5.06;100.00;100759.41;4993046;28;20646;-86
2022/03/22 04:49:12;;;;;;;25.52;18.30;;;;;;;4.96;100.00;100755.16;4992820;28;20290;-86
2022/03/22 04:57:08;;;;;;;24.10;18.45;;;;;;;4.89;100.00;100756.16;4991979;28;20594;-87
2022/03/22 04:59:35;;;;;;;29.02;19.58;;;;;;;4.88;100.00;100765.06;4993546;28;20211;-86
2022/03/22 05:02:02;;;;;;;24.77;17.48;;;;;;;4.81;100.00;100757.16;4994661;28;20229;-87
2022/03/22 05:04:28;;;;;;;24.02;17.98;;;;;;;4.81;100.00;100766.94;4988166;28;20198;-86
2022/03/22 05:06:55;;;;;;;26.23;18.63;;;;;;;4.68;100.00;100762.69;4991433;28;20226;-87
2022/03/22 05:09:22;;;;;;;30.58;18.00;;;;;;;4.67;100.00;100763.63;4992861;28;20199;-87
2022/03/22 05:11:51;;;;;;;25.08;18.20;;;;;;;4.74;100.00;100766.16;4993149;28;20194;-87
2022/03/22 05:14:17;;;;;;;25.98;18.42;;;;;;;4.79;100.00;100768.75;4996389;28;20266;-88
2022/03/22 05:16:45;;;;;;;30.38;18.50;;;;;;;4.68;100.00;100770.72;4989174;28;20193;-87
2022/03/22 05:19:13;;;;;;;24.73;17.50;;;;;;;4.85;100.00;100773.13;4991621;28;20195;-87
2022/03/22 05:21:40;;;;;;;27.25;17.50;;;;;;;4.73;100.00;100774.22;4992687;28;20255;-75
2022/03/22 05:24:07;;;;;;;26.33;18.98;;;;;;;4.76;100.00;100774.16;4992805;28;20648;-75
2022/03/22 05:26:34;;;;;;;28.35;17.35;;;;;;;4.83;100.00;100780.28;4989840;28;20310;-75
2022/03/22 05:29:04;;;;;;;27.63;18.08;;;;;;;4.69;100.00;100776.03;4981668;28;20210;-75
2022/03/22 05:31:31;;;;;;;27.83;18.90;;;;;;;4.75;100.00;100775.06;4991270;28;20192;-74
2022/03/22 05:33:58;;;;;;;30.60;19.35;;;;;;;4.79;100.00;100780.34;4992491;28;20584;-75
2022/03/22 05:36:24;;;;;;;33.03;20.08;;;;;;;4.84;100.00;100774.94;4993219;28;20187;-75
2022/03/22 05:38:52;;;;;;;29.88;18.75;;;;;;;4.93;100.00;100788.13;4993617;28;20192;-75
2022/03/22 05:41:18;;;;;;;25.75;18.38;;;;;;;5.03;100.00;100786.16;4992662;28;20210;-76
2022/03/22 05:43:45;;;;;;;24.38;17.40;;;;;;;5.13;100.00;100790.47;4989073;28;20536;-75
2022/03/22 05:46:15;;;;;;;24.65;18.38;;;;;;;5.03;100.00;100783.50;4984079;28;20915;-75
2022/03/22 05:48:41;;;;;;;28.42;19.67;;;;;;;5.06;100.00;100785.25;4986068;28;20204;-77
2022/03/22 05:51:08;;;;;;;27.08;19.08;;;;;;;5.18;100.00;100787.72;4985198;28;20190;-75
2022/03/22 05:53:35;;;;;;;30.15;20.10;;;;;;;5.23;100.00;100791.19;4996396;28;20195;-75
2022/03/22 05:56:01;;;;;;;25.90;18.92;;;;;;;5.35;98.62;100785.63;4993161;28;20207;-75
2022/03/22 05:58:28;;;;;;;29.23;19.25;;;;;;;5.32;99.30;100788.34;4992636;28;20274;-76
2022/03/22 06:00:55;;;;;;;32.17;21.23;;;;;;;5.39;100.00;100791.78;4993057;28;20245;-75
2022/03/22 06:03:23;;;;;;;25.25;19.15;;;;;;;5.48;97.45;100786.28;4978844;28;20767;-74
2022/03/22 06:05:50;;;;;;;30.80;20.00;;;;;;;5.55;97.97;100787.94;4973846;28;20635;-76
2022/03/22 06:08:18;;;;;;;26.08;18.67;;;;;;;5.40;98.18;100782.84;4989400;28;20232;-76
2022/03/22 06:10:45;;;;;;;24.35;18.65;;;;;;;5.54;97.90;100786.19;4993795;28;20222;-79
2022/03/22 06:13:11;;;;;;;25.63;18.38;;;;;;;5.58;97.33;100784.31;4991972;28;20187;-78
2022/03/22 06:15:38;;;;;;;30.58;20.52;;;;;;;5.34;98.89;100785.66;4992098;28;20273;-79
2022/03/22 06:18:06;;;;;;;27.45;19.75;;;;;;;5.29;99.54;100790.19;4991524;28;20226;-78
2022/03/22 06:20:36;;;;;;;29.40;18.60;;;;;;;5.29;100.00;100801.78;4992026;28;20279;-78
2022/03/22 06:23:04;;;;;;;22.92;18.17;;;;;;;5.38;99.70;100793.59;4998130;28;20224;-77
2022/03/22 06:25:37;;;;;;;29.08;18.05;;;;;;;5.40;99.42;100806.91;4993926;28;20259;-75
2022/03/22 06:28:06;;;;;;;26.08;18.45;;;;;;;5.53;98.78;100795.09;4991441;28;20677;-78
2022/03/22 06:30:34;;;;;;;26.48;18.52;;;;;;;5.54;99.04;100798.63;4991586;28;20203;-78
2022/03/22 06:33:02;;;;;;;26.17;20.17;;;;;;;5.74;98.44;100799.13;4991377;28;20187;-79
2022/03/22 06:35:31;;;;;;;27.77;18.75;;;;;;;5.85;96.99;100798.94;4990620;28;20191;-77
2022/03/22 06:38:01;;;;;;;28.55;19.05;;;;;;;5.98;94.44;100803.16;4992737;28;20266;-84
2022/03/22 06:40:29;;;;;;;28.83;19.67;;;;;;;6.07;93.92;100795.88;4995672;28;20652;-85
2022/03/22 06:42:57;;;;;;;26.85;20.20;;;;;;;6.28;91.51;100802.56;4997656;28;20222;-89
2022/03/22 06:45:24;;;;;;;27.90;19.45;;;;;;;6.31;91.02;100798.06;4995633;28;20203;-85
2022/03/22 06:47:52;;;;;;;35.42;21.70;;;;;;;6.37;90.29;100805.91;4994955;28;20536;-84
2022/03/22 06:50:20;;;;;;;27.75;20.73;;;;;;;6.44;90.16;100809.34;4992818;28;20206;-79
2022/03/22 06:52:47;;;;;;;26.35;19.50;;;;;;;6.41;89.89;100812.09;4991666;28;20211;-77
2022/03/22 06:55:18;;;;;;;30.13;21.10;;;;;;;6.47;90.47;100815.53;4991614;28;20196;-80
2022/03/22 06:57:45;;;;;;;32.80;22.02;;;;;;;6.58;90.13;100812.63;4994684;28;20267;-78
2022/03/22 07:00:15;;;;;;;26.42;21.13;;;;;;;6.70;88.77;100814.13;4995011;28;20563;-77
2022/03/22 07:03:03;;;;;;;30.60;21.75;;;;;;;6.66;88.12;100812.44;4998224;28;20299;-76
2022/03/22 07:05:31;;;;;;;30.50;22.30;;;;;;;6.73;87.98;100818.53;4994776;28;20244;-78
2022/03/22 07:07:57;;;;;;;35.15;21.92;;;;;;;6.77;86.12;100817.56;4994564;28;20297;-77
2022/03/22 07:10:26;;;;;;;31.35;21.80;;;;;;;6.90;85.70;100819.03;4995335;28;20203;-77
2022/03/22 07:12:54;;;;;;;28.52;20.60;;;;;;;7.04;83.90;100818.69;4995119;28;20190;-78
2022/03/22 07:15:23;;;;;;;31.65;21.55;;;;;;;7.08;83.18;100813.22;4994961;28;20203;-76
2022/03/22 07:17:52;;;;;;;30.83;21.92;;;;;;;7.24;82.73;100820.91;4994739;28;20207;-77
2022/03/22 07:20:19;;;;;;;31.50;20.58;;;;;;;7.31;82.05;100818.00;4995041;28;20226;-77
2022/03/22 07:22:46;;;;;;;34.53;22.73;;;;;;;7.60;80.17;100802.06;4995032;28;20203;-77
2022/03/22 07:25:13;;;;;;;29.50;22.33;;;;;;;7.68;79.15;100811.69;4994397;28;20657;-77
2022/03/22 07:27:41;;;;;;;29.92;21.85;;;;;;;7.80;78.44;100810.50;4994933;28;20640;-77
2022/03/22 07:30:10;;;;;;;34.55;22.25;;;;;;;8.01;77.96;100809.00;4994657;28;20305;-77
2022/03/22 07:32:36;;;;;;;29.58;21.23;;;;;;;8.12;76.60;100803.34;4994537;28;20274;-77
2022/03/22 07:35:04;;;;;;;38.03;21.70;;;;;;;8.12;76.33;100806.03;4994905;28;20226;-76
2022/03/22 07:37:30;;;;;;;31.42;20.83;;;;;;;8.37;75.62;100806.19;4994033;28;20208;-77
2022/03/22 07:39:58;;;;;;;31.02;21.20;;;;;;;8.56;73.71;100806.53;4993423;28;20189;-77
2022/03/22 07:42:27;;;;;;;29.48;21.35;;;;;;;8.71;72.96;100799.81;4993186;28;20206;-78
2022/03/22 07:44:56;;;;;;;31.67;21.55;;;;;;;8.78;69.38;100796.00;4993251;28;20243;-81
2022/03/22 07:47:23;;;;;;;27.40;20.55;;;;;;;9.15;69.37;100810.94;4994145;28;20220;-79
2022/03/22 07:55:17;;;;;;;23.67;19.30;;;;;;;9.53;62.79;100800.69;4993952;28;20536;-76
2022/03/22 07:57:44;;;;;;;30.55;20.60;;;;;;;9.67;62.13;100801.09;4993493;28;20360;-76
2022/03/22 08:00:13;;;;;;;27.10;20.20;;;;;;;9.76;60.83;100802.56;4983406;28;20591;-78
2022/03/22 08:02:51;;;;;;;27.70;20.35;;;;;;;9.96;58.22;100804.53;4993597;28;20212;-77
2022/03/22 08:05:18;;;;;;;31.27;20.63;;;;;;;9.98;58.06;100803.56;4974162;28;20191;-77
2022/03/22 08:07:45;;;;;;;30.88;21.23;;;;;;;10.15;57.24;100799.34;4973202;28;20227;-79
2022/03/22 08:10:13;;;;;;;32.60;21.23;;;;;;;10.42;55.27;100802.84;4986802;28;20545;-79
2022/03/22 08:12:39;;;;;;;28.95;20.33;;;;;;;10.48;54.62;100805.31;4988201;28;20265;-80
2022/03/22 08:15:08;;;;;;;30.55;20.35;;;;;;;10.63;53.50;100810.13;4974077;28;20560;-78
2022/03/22 08:17:36;;;;;;;26.05;21.13;;;;;;;10.72;52.67;100813.38;4974026;28;20191;-77
2022/03/22 08:20:04;;;;;;;29.50;20.63;;;;;;;10.83;52.02;100808.44;4974214;28;20184;-78
2022/03/22 08:22:32;;;;;;;22.60;18.13;;;;;;;10.85;51.45;100803.88;4973940;28;20203;-79
2022/03/22 08:24:58;;;;;;;30.95;21.75;;;;;;;11.08;50.16;100808.34;4976414;28;20192;-79
2022/03/22 08:27:25;;;;;;;31.70;20.10;;;;;;;11.18;48.82;100808.84;4992799;28;20215;-79
2022/03/22 08:29:52;;;;;;;27.42;18.98;;;;;;;11.23;50.18;100812.22;4992656;28;20295;-79
2022/03/22 08:32:18;;;;;;;26.73;19.40;;;;;;;11.33;48.66;100808.19;4993080;28;20191;-79
2022/03/22 08:34:47;;;;;;;28.10;18.98;;;;;;;11.50;47.69;100798.50;4993349;28;20203;-79
2022/03/22 08:37:13;;;;;;;25.92;19.67;;;;;;;11.62;47.02;100796.16;4993268;28;20179;-79
2022/03/22 08:39:40;;;;;;;28.50;18.90;;;;;;;11.82;46.36;100805.19;4993404;28;20235;-79
2022/03/22 08:42:07;;;;;;;24.27;18.25;;;;;;;11.98;45.92;100803.59;4994224;28;20400;-79
2022/03/22 08:44:33;;;;;;;25.80;19.35;;;;;;;12.05;45.68;100807.78;5012833;28;20189;-80
2022/03/22 08:47:01;;;;;;;27.80;20.65;;;;;;;12.13;44.98;100796.63;4998718;28;20211;-80
2022/03/22 08:49:28;;;;;;;22.65;18.58;;;;;;;12.21;44.47;100807.06;4990823;28;20204;-79
2022/03/22 08:51:56;;;;;;;25.80;20.15;;;;;;;12.31;44.60;100803.88;4992642;28;20239;-80
2022/03/22 08:54:22;;;;;;;26.98;18.83;;;;;;;12.42;44.32;100800.69;4992919;28;20183;-79
2022/03/22 08:56:49;;;;;;;27.33;18.52;;;;;;;12.40;44.27;100799.88;4992661;28;20294;-79
2022/03/22 08:59:15;;;;;;;25.23;18.88;;;;;;;12.65;44.23;100798.75;4993510;28;20207;-79
2022/03/22 09:01:42;;;;;;;27.77;18.92;;;;;;;12.57;44.27;100801.78;4992818;28;20741;-78
2022/03/22 09:06:52;;;;;;;22.42;18.63;;;;;;;12.33;44.54;100803.81;4989368;28;20207;-77
2022/03/22 09:09:20;;;;;;;31.40;20.38;;;;;;;12.63;44.09;100793.41;4973317;28;20219;-76
2022/03/22 09:11:47;;;;;;;28.13;19.63;;;;;;;12.78;43.66;100793.63;4973118;28;20285;-80
2022/03/22 09:14:13;;;;;;;25.50;19.38;;;;;;;13.05;41.93;100794.09;4972800;28;20195;-79
2022/03/22 09:16:40;;;;;;;23.90;17.88;;;;;;;13.35;40.91;100791.72;4975380;28;20283;-77
2022/03/22 09:19:07;;;;;;;25.00;19.10;;;;;;;13.34;41.09;100790.84;4991398;28;20188;-76
2022/03/22 09:21:33;;;;;;;26.67;17.52;;;;;;;13.60;40.71;100793.19;4992283;28;20188;-76
2022/03/22 09:24:01;;;;;;;25.30;17.30;;;;;;;13.75;40.23;100789.69;4992372;28;20651;-76
2022/03/22 09:26:29;;;;;;;25.73;18.38;;;;;;;13.80;40.08;100795.72;4991736;28;20196;-78
2022/03/22 09:28:56;;;;;;;26.42;18.00;;;;;;;13.87;39.74;100794.44;4992322;28;20209;-77
2022/03/22 09:31:24;;;;;;;24.63;17.50;;;;;;;13.95;39.60;100791.31;4990816;28;20200;-77
2022/03/22 09:33:51;;;;;;;25.17;18.15;;;;;;;13.72;39.79;100779.84;4992279;28;20204;-76
2022/03/22 09:36:18;;;;;;;22.85;17.48;;;;;;;14.07;39.58;100779.84;4991524;28;20188;-77
2022/03/22 09:38:48;;;;;;;23.48;17.10;;;;;;;14.36;38.67;100780.97;4991304;28;20188;-76
2022/03/22 09:41:15;;;;;;;23.70;18.48;;;;;;;14.53;37.67;100785.44;4992004;28;20193;-77
2022/03/22 09:43:48;;;;;;;26.38;17.40;;;;;;;14.46;37.75;100775.03;4991935;28;20206;-77
2022/03/22 09:46:18;;;;;;;24.63;17.25;;;;;;;14.64;36.67;100778.56;4991585;28;20284;-79
2022/03/22 09:48:45;;;;;;;25.20;18.38;;;;;;;14.75;36.48;100777.00;4990046;28;20319;-77
2022/03/22 09:53:57;;;;;;;21.23;16.73;;;;;;;15.10;35.56;100779.50;4991973;28;20200;-77
2022/03/22 09:56:26;;;;;;;19.67;16.05;;;;;;;15.13;35.36;100770.34;4990996;28;20644;-79
2022/03/22 09:58:53;;;;;;;19.50;16.35;;;;;;;15.18;35.24;100779.09;4991714;28;20281;-78
2022/03/22 10:01:21;;;;;;;21.92;16.85;;;;;;;15.34;34.93;100763.63;4990988;28;20895;-77
2022/03/22 10:03:56;;;;;;;20.15;17.30;;;;;;;15.38;34.78;100767.06;4992393;28;20199;-77
2022/03/22 10:06:23;;;;;;;23.60;17.42;;;;;;;15.31;34.48;100773.78;4990553;28;20209;-78
2022/03/22 10:08:50;;;;;;;22.08;16.38;;;;;;;15.55;34.21;100766.91;4991854;28;20246;-77
2022/03/22 10:11:18;;;;;;;23.33;15.90;;;;;;;15.62;33.34;100764.69;4991598;28;20206;-77
2022/03/22 10:13:54;;;;;;;22.00;15.45;;;;;;;15.78;33.58;100772.81;4991066;28;20199;-78
2022/03/22 10:16:21;;;;;;;20.45;16.45;;;;;;;15.90;32.87;100769.34;4991406;28;20612;-78
2022/03/22 10:18:48;;;;;;;21.40;16.58;;;;;;;15.96;33.03;100759.94;4991020;28;20205;-78
2022/03/22 10:21:15;;;;;;;19.90;15.13;;;;;;;15.84;31.95;100764.28;4991768;28;20198;-78
2022/03/22 10:23:53;;;;;;;25.55;15.52;;;;;;;15.88;32.29;100762.28;4991318;28;20206;-78
2022/03/22 10:26:20;;;;;;;19.23;16.13;;;;;;;15.99;31.04;100757.91;4991215;28;20198;-78
2022/03/22 10:28:51;;;;;;;24.58;16.42;;;;;;;15.42;31.47;100755.03;4991243;28;20325;-77
2022/03/22 10:31:20;;;;;;;21.27;15.52;;;;;;;15.72;30.46;100756.91;4993009;28;20205;-77
2022/03/22 10:33:51;;;;;;;24.02;15.38;;;;;;;15.75;30.26;100757.56;4995898;28;20203;-76
2022/03/22 10:36:21;;;;;;;25.27;15.02;;;;;;;15.46;30.53;100745.72;4995325;28;20239;-79
2022/03/22 10:38:59;;;;;;;18.83;14.95;;;;;;;15.48;30.97;100749.22;4996142;28;20214;-82
2022/03/22 10:41:30;;;;;;;20.27;15.00;;;;;;;15.66;30.93;100741.81;4995261;28;20195;-78
2022/03/22 10:44:05;;;;;;;16.90;14.68;;;;;;;15.58;29.46;100742.28;4994623;28;20246;-78
2022/03/22 10:46:33;;;;;;;18.05;14.27;;;;;;;15.54;29.87;100742.56;4995023;28;20261;-78
2022/03/22 10:49:04;;;;;;;16.90;14.07;;;;;;;15.57;29.23;100740.53;4994652;28;20208;-78
2022/03/22 10:51:42;;;;;;;17.27;13.75;;;;;;;15.67;29.24;100742.69;4994822;28;20194;-83
2022/03/22 10:54:12;;;;;;;20.25;15.32;;;;;;;15.87;29.67;100733.34;4995470;28;20195;-78
2022/03/22 10:56:44;;;;;;;17.15;14.02;;;;;;;15.64;30.31;100739.19;4995093;28;20203;-78
2022/03/22 10:59:12;;;;;;;20.05;15.70;;;;;;;15.85;30.48;100733.44;4994391;28;20190;-78
2022/03/22 11:01:42;;;;;;;33.40;17.30;;;;;;;16.24;30.34;100734.63;4994623;28;20238;-77
2022/03/22 11:04:10;;;;;;;19.75;16.02;;;;;;;16.34;30.37;100733.06;4995119;28;20237;-77
2022/03/22 11:06:38;;;;;;;24.05;15.90;;;;;;;16.14;30.40;100730.72;4994246;28;20188;-78
2022/03/22 11:09:06;;;;;;;19.50;13.77;;;;;;;16.32;30.16;100731.41;4993431;28;20562;-78
2022/03/22 11:11:32;;;;;;;23.58;15.95;;;;;;;16.44;30.13;100734.22;4993127;28;20626;-77
2022/03/22 11:14:00;;;;;;;30.48;17.40;;;;;;;16.23;30.01;100732.88;4994976;28;20187;-78
2022/03/22 11:16:28;;;;;;;23.60;17.63;;;;;;;16.55;30.20;100729.91;4994450;28;20206;-78
2022/03/22 11:18:58;;;;;;;17.85;15.25;;;;;;;16.41;29.70;100730.81;4993319;28;20198;-78
2022/03/22 11:21:27;;;;;;;18.95;15.32;;;;;;;16.16;30.24;100729.66;4986171;28;20254;-78
2022/03/22 11:24:04;;;;;;;21.60;16.35;;;;;;;16.36;29.31;100722.97;4977165;28;20192;-78
2022/03/22 11:26:31;;;;;;;21.73;16.90;;;;;;;16.29;29.63;100724.34;4991992;28;20191;-79
2022/03/22 11:28:58;;;;;;;25.25;16.00;;;;;;;16.18;29.69;100721.44;4994248;28;20231;-78
2022/03/22 11:31:27;;;;;;;30.75;18.67;;;;;;;16.22;37.03;100714.84;4994287;28;20227;-78
2022/03/22 11:34:11;;;;;;;18.40;15.55;;;;;;;16.41;28.92;100717.22;4995065;28;20205;-77
2022/03/22 11:36:43;;;;;;;20.83;16.40;;;;;;;16.47;33.96;100709.53;4994525;28;20239;-78
2022/03/22 11:39:10;;;;;;;20.95;15.07;;;;;;;16.55;29.90;100703.63;4994459;28;20253;-77
2022/03/22 11:44:27;;;;;;;20.10;16.05;;;;;;;16.31;30.09;100711.53;4994080;28;20187;-79
2022/03/22 11:47:05;;;;;;;19.33;15.23;;;;;;;16.47;32.88;100714.97;4994043;28;20270;-79
2022/03/22 11:49:48;;;;;;;24.42;17.45;;;;;;;16.55;30.19;100702.72;4994410;28;20652;-78
2022/03/22 11:52:17;;;;;;;22.85;17.70;;;;;;;16.65;32.99;100698.44;4994291;28;20206;-78